Terminal Aerodrome Forecast
Issued by NWS

Home | Current Version | Previous Version | Text Only | Print | Product List | Glossary On
Versions: 1 2 3 4 5 6 7 8 9 10 11 12 13 14 15 16
000
FTPA31 PHFO 231131
TAFHOG
TAF
PHOG 231131Z 2312/2412 06008KT P6SM FEW035 SCT070
     FM231800 06014KT P6SM FEW035 SCT070
     FM232200 06018G24KT P6SM SCT035 BKN070
     FM240400 06014KT P6SM SCT035 BKN070
     FM240800 06008KT P6SM FEW035 SCT070
      AMD LTD TO VIS AND WIND TIL 231600=

USA.gov is the U.S. government's official web portal to all federal, state and local government web resources and services.